Time;durP1;ratioP1;P1;durP2;ratioP2;P2;SDS_P1;SDS_P2;PMS_P1;PMS_P2;Temp;Humidity;BMP_temperature;BMP_pressure;BME280_temperature;BME280_humidity;BME280_pressure;Samples;Min_cycle;Max_cycle;Signal;HPM_P1;HPM_P2
2021/11/19 00:01:11;;;;;;;16.27;13.03;;;5.70;99.90;;;;;;4972070;28;20206;-72
2021/11/19 00:03:39;;;;;;;17.87;14.27;;;5.70;99.90;;;;;;4971390;28;20202;-72
2021/11/19 00:06:06;;;;;;;17.60;12.53;;;5.70;99.90;;;;;;4971672;28;20641;-72
2021/11/19 00:08:34;;;;;;;17.00;12.13;;;5.60;99.90;;;;;;4970872;28;20677;-72
2021/11/19 00:11:04;;;;;;;14.57;12.53;;;5.60;99.90;;;;;;4971607;28;20217;-72
2021/11/19 00:13:31;;;;;;;17.30;13.20;;;5.60;99.90;;;;;;4970962;28;20214;-72
2021/11/19 00:15:59;;;;;;;17.33;12.87;;;5.60;99.90;;;;;;4971504;28;20237;-72
2021/11/19 00:18:28;;;;;;;17.57;14.00;;;5.60;99.90;;;;;;4970743;28;20206;-72
2021/11/19 00:20:55;;;;;;;19.97;13.43;;;5.60;99.90;;;;;;4971318;28;20268;-71
2021/11/19 00:23:22;;;;;;;17.40;13.07;;;5.60;99.90;;;;;;4971064;28;20209;-71
2021/11/19 00:25:50;;;;;;;14.93;12.03;;;5.60;99.90;;;;;;4971461;28;20264;-71
2021/11/19 00:28:17;;;;;;;16.33;12.17;;;5.60;99.90;;;;;;4970900;28;20563;-74
2021/11/19 00:30:45;;;;;;;17.33;13.20;;;5.60;99.90;;;;;;4970880;28;20205;-74
2021/11/19 00:33:13;;;;;;;14.43;11.93;;;5.40;99.90;;;;;;4970411;28;20249;-73
2021/11/19 00:35:44;;;;;;;17.53;11.87;;;5.40;99.90;;;;;;4970781;28;20365;-74
2021/11/19 00:38:13;;;;;;;14.87;11.83;;;5.40;99.90;;;;;;4971407;28;20213;-74
2021/11/19 00:40:43;;;;;;;17.50;12.30;;;5.40;99.90;;;;;;4971040;28;20209;-72
2021/11/19 00:43:11;;;;;;;15.20;11.13;;;5.40;99.90;;;;;;4971331;28;20213;-73
2021/11/19 00:45:39;;;;;;;16.83;12.00;;;5.40;99.90;;;;;;4971212;28;20214;-73
2021/11/19 00:48:08;;;;;;;17.60;12.30;;;5.40;99.90;;;;;;4971015;28;20218;-71
2021/11/19 00:50:53;;;;;;;19.20;13.60;;;5.40;99.90;;;;;;4974194;28;20292;-71
2021/11/19 00:53:21;;;;;;;16.57;12.43;;;5.30;99.90;;;;;;4973779;28;20264;-72
2021/11/19 00:55:48;;;;;;;20.37;13.80;;;5.30;99.90;;;;;;4974393;28;20237;-72
2021/11/19 00:58:16;;;;;;;16.80;11.10;;;5.30;99.90;;;;;;4973979;28;20260;-72
2021/11/19 01:00:47;;;;;;;18.03;12.90;;;5.40;99.90;;;;;;4974395;28;20292;-72
2021/11/19 01:03:15;;;;;;;17.20;12.13;;;5.40;99.90;;;;;;4973828;28;20235;-72
2021/11/19 01:05:42;;;;;;;15.97;12.43;;;5.30;99.90;;;;;;4974589;28;20202;-72
2021/11/19 01:08:10;;;;;;;16.27;11.80;;;5.30;99.90;;;;;;4974650;28;20210;-72
2021/11/19 01:10:40;;;;;;;13.43;11.47;;;5.30;99.90;;;;;;4974276;28;20673;-72
2021/11/19 01:13:08;;;;;;;14.33;12.37;;;5.20;99.90;;;;;;4974438;28;20268;-72
2021/11/19 01:15:39;;;;;;;12.03;10.00;;;5.10;99.90;;;;;;4973672;28;20230;-72
2021/11/19 01:18:10;;;;;;;19.37;11.43;;;5.20;99.90;;;;;;4974787;28;20268;-72
2021/11/19 01:20:40;;;;;;;14.77;11.37;;;5.20;99.90;;;;;;4974379;28;20205;-72
2021/11/19 01:23:11;;;;;;;15.83;11.33;;;5.30;99.90;;;;;;4974789;28;20209;-72
2021/11/19 01:25:40;;;;;;;13.50;11.30;;;5.30;99.90;;;;;;4974087;28;20740;-73
2021/11/19 01:28:07;;;;;;;17.83;10.90;;;5.20;99.90;;;;;;4974407;28;20264;-73
2021/11/19 01:30:40;;;;;;;17.27;11.57;;;5.20;99.90;;;;;;4973409;28;20639;-72
2021/11/19 01:33:07;;;;;;;17.37;12.10;;;5.20;99.90;;;;;;4974149;28;20760;-73
2021/11/19 01:35:35;;;;;;;17.77;12.00;;;5.30;99.90;;;;;;4973166;28;20661;-72
2021/11/19 01:38:02;;;;;;;16.93;11.67;;;5.30;99.90;;;;;;4974208;28;20280;-74
2021/11/19 01:40:34;;;;;;;19.57;12.27;;;5.20;99.90;;;;;;4973286;28;20300;-74
2021/11/19 01:43:05;;;;;;;14.80;10.67;;;5.10;99.90;;;;;;4973773;28;20214;-74
2021/11/19 01:45:35;;;;;;;15.17;11.60;;;5.10;99.90;;;;;;4973454;28;20213;-74
2021/11/19 01:48:05;;;;;;;17.43;11.03;;;5.10;99.90;;;;;;4973550;28;20218;-73
2021/11/19 01:50:35;;;;;;;17.77;12.10;;;5.00;99.90;;;;;;4973463;28;20264;-74
2021/11/19 01:53:05;;;;;;;18.63;12.30;;;5.00;99.90;;;;;;4973470;28;20558;-74
2021/11/19 01:55:38;;;;;;;15.57;11.03;;;5.00;99.90;;;;;;4960063;28;20225;-74
2021/11/19 01:58:08;;;;;;;15.63;11.53;;;5.00;99.90;;;;;;4973629;28;20705;-74
2021/11/19 02:00:40;;;;;;;17.77;12.23;;;5.00;99.90;;;;;;4972498;28;20201;-73
2021/11/19 02:03:09;;;;;;;20.00;13.07;;;5.00;99.90;;;;;;4973837;28;20213;-73
2021/11/19 02:05:39;;;;;;;14.20;11.10;;;5.00;99.90;;;;;;4973110;28;20206;-74
2021/11/19 02:08:14;;;;;;;13.53;11.13;;;5.00;99.90;;;;;;4973617;28;20703;-74
2021/11/19 02:10:52;;;;;;;15.53;11.70;;;5.00;99.90;;;;;;4973313;28;20264;-73
2021/11/19 02:13:25;;;;;;;13.13;10.40;;;5.00;99.90;;;;;;4972454;28;20667;-74
2021/11/19 02:15:55;;;;;;;14.00;11.83;;;5.00;99.90;;;;;;4973228;28;20288;-74
2021/11/19 02:18:27;;;;;;;10.77;9.50;;;4.90;99.90;;;;;;4972712;28;20209;-73
2021/11/19 02:21:00;;;;;;;14.73;11.00;;;5.10;99.90;;;;;;4972909;28;20213;-73
2021/11/19 02:23:34;;;;;;;14.90;10.53;;;4.90;99.90;;;;;;4970655;28;20670;-73
2021/11/19 02:26:06;;;;;;;13.87;10.67;;;4.80;99.90;;;;;;4973064;28;20272;-73
2021/11/19 02:28:36;;;;;;;16.70;10.10;;;4.80;99.90;;;;;;4972437;28;20260;-75
2021/11/19 02:31:14;;;;;;;15.57;10.37;;;4.70;99.90;;;;;;4972694;28;20209;-72
2021/11/19 02:33:43;;;;;;;15.93;10.50;;;4.70;99.90;;;;;;4973011;28;20202;-73
2021/11/19 02:36:14;;;;;;;16.57;10.70;;;4.70;99.90;;;;;;4972435;28;20726;-73
2021/11/19 02:38:45;;;;;;;13.50;9.10;;;4.70;99.90;;;;;;4972997;28;20206;-73
2021/11/19 02:41:17;;;;;;;13.67;10.13;;;4.70;99.90;;;;;;4985873;28;20213;-73
2021/11/19 02:43:46;;;;;;;13.17;10.23;;;4.70;99.90;;;;;;4972435;28;20220;-74
2021/11/19 02:46:18;;;;;;;14.67;9.97;;;4.70;99.90;;;;;;4972118;28;20209;-73
2021/11/19 02:48:45;;;;;;;12.50;10.27;;;4.70;99.90;;;;;;4972395;28;20284;-78
2021/11/19 02:51:15;;;;;;;13.97;10.73;;;4.60;99.90;;;;;;4972638;28;20296;-72
2021/11/19 02:53:43;;;;;;;14.13;12.63;;;4.60;99.90;;;;;;4972637;28;20209;-72
2021/11/19 02:56:11;;;;;;;14.03;10.17;;;4.60;99.90;;;;;;4972530;28;20229;-72
2021/11/19 02:58:48;;;;;;;16.90;11.57;;;4.60;99.90;;;;;;4972033;28;20631;-71
2021/11/19 03:01:19;;;;;;;14.30;10.87;;;4.60;99.90;;;;;;4972028;28;20263;-72
2021/11/19 03:04:07;;;;;;;12.90;9.83;;;4.60;99.90;;;;;;4971978;28;20689;-71
2021/11/19 03:06:37;;;;;;;15.07;10.27;;;4.50;99.90;;;;;;4971950;28;20212;-72
2021/11/19 03:09:04;;;;;;;17.70;10.10;;;4.50;99.90;;;;;;4972707;28;20335;-72
2021/11/19 03:11:31;;;;;;;20.43;10.70;;;4.50;99.90;;;;;;4971445;28;20217;-72
2021/11/19 03:14:04;;;;;;;13.03;9.97;;;4.50;99.90;;;;;;4971876;28;20260;-72
2021/11/19 03:16:31;;;;;;;11.53;10.20;;;4.50;99.90;;;;;;4971876;28;20280;-72
2021/11/19 03:18:58;;;;;;;13.27;8.53;;;4.50;99.90;;;;;;4971994;28;20264;-72
2021/11/19 03:21:26;;;;;;;12.73;9.40;;;4.50;99.90;;;;;;4971755;28;20232;-72
2021/11/19 03:23:57;;;;;;;13.67;10.00;;;4.50;99.90;;;;;;4971785;28;20209;-71
2021/11/19 03:26:24;;;;;;;11.50;9.07;;;4.50;99.90;;;;;;4971514;28;20205;-74
2021/11/19 03:28:51;;;;;;;13.93;9.90;;;4.50;99.90;;;;;;4971731;28;20241;-71
2021/11/19 03:31:20;;;;;;;13.23;9.53;;;4.40;99.90;;;;;;4971317;28;20206;-72
2021/11/19 03:33:49;;;;;;;11.80;8.93;;;4.40;99.90;;;;;;4971852;28;20244;-72
2021/11/19 03:36:17;;;;;;;11.97;8.50;;;4.50;99.90;;;;;;4971037;28;20654;-73
2021/11/19 03:38:47;;;;;;;12.47;10.13;;;4.50;99.90;;;;;;4971876;28;20217;-72
2021/11/19 03:41:17;;;;;;;11.40;8.57;;;4.50;99.90;;;;;;4971421;28;20247;-75
2021/11/19 03:43:48;;;;;;;15.20;9.70;;;4.40;99.90;;;;;;4954645;28;20289;-75
2021/11/19 03:46:27;;;;;;;11.77;9.53;;;4.40;99.90;;;;;;4971317;28;20249;-73
2021/11/19 03:48:53;;;;;;;11.80;8.83;;;4.40;99.90;;;;;;4971689;28;20261;-74
2021/11/19 03:51:26;;;;;;;9.47;7.80;;;4.40;99.90;;;;;;4971248;28;20630;-74
2021/11/19 03:53:53;;;;;;;12.10;8.70;;;4.40;99.90;;;;;;4971675;28;20263;-75
2021/11/19 03:56:20;;;;;;;13.90;9.17;;;4.30;99.90;;;;;;4970945;28;20229;-74
2021/11/19 03:58:47;;;;;;;13.03;9.17;;;4.40;99.90;;;;;;4971546;28;20210;-73
2021/11/19 04:01:18;;;;;;;10.00;8.43;;;4.40;99.90;;;;;;4971045;28;20213;-73
2021/11/19 04:03:47;;;;;;;12.30;9.13;;;4.40;99.90;;;;;;4971562;28;20201;-72
2021/11/19 04:06:15;;;;;;;11.40;8.70;;;4.30;99.90;;;;;;4971409;28;20213;-74
2021/11/19 04:08:43;;;;;;;11.47;8.07;;;4.30;99.90;;;;;;4971609;28;20214;-74
2021/11/19 04:11:11;;;;;;;10.57;9.10;;;4.30;99.90;;;;;;4971657;28;20209;-74
2021/11/19 04:13:38;;;;;;;12.37;8.37;;;4.30;99.90;;;;;;4971461;28;20209;-73
2021/11/19 04:16:09;;;;;;;13.97;8.40;;;4.30;99.90;;;;;;4971721;28;20237;-74
2021/11/19 04:18:36;;;;;;;11.17;8.17;;;4.20;99.90;;;;;;4971086;28;20240;-74
2021/11/19 04:21:06;;;;;;;12.20;9.90;;;4.20;99.90;;;;;;4971679;28;20209;-74
2021/11/19 04:23:34;;;;;;;12.13;8.50;;;4.20;99.90;;;;;;4971140;28;20673;-74
2021/11/19 04:26:03;;;;;;;14.53;8.93;;;4.20;99.90;;;;;;4975366;28;20240;-75
2021/11/19 04:28:30;;;;;;;11.20;7.27;;;4.20;99.90;;;;;;4974655;28;20218;-75
2021/11/19 04:30:58;;;;;;;18.13;8.87;;;4.20;99.90;;;;;;4974885;28;20209;-75
2021/11/19 04:33:25;;;;;;;10.67;8.07;;;4.20;99.90;;;;;;4975051;28;20210;-76
2021/11/19 04:35:53;;;;;;;12.67;9.10;;;4.20;99.90;;;;;;4974705;28;20595;-76
2021/11/19 04:38:23;;;;;;;12.73;9.93;;;4.20;99.90;;;;;;4974541;28;20214;-75
2021/11/19 04:40:52;;;;;;;10.27;9.07;;;4.20;99.90;;;;;;4975185;28;20214;-74
2021/11/19 04:43:19;;;;;;;11.57;8.67;;;4.10;99.90;;;;;;4974287;28;20689;-74
2021/11/19 04:45:46;;;;;;;13.70;7.93;;;4.10;99.90;;;;;;4974845;28;20213;-75
2021/11/19 04:48:13;;;;;;;12.50;9.13;;;4.10;99.90;;;;;;4974115;28;20623;-75
2021/11/19 04:50:43;;;;;;;12.10;7.97;;;4.10;99.90;;;;;;4975233;28;20205;-74
2021/11/19 04:53:12;;;;;;;12.43;9.47;;;4.20;99.90;;;;;;4974580;28;20264;-74
2021/11/19 04:55:41;;;;;;;12.70;8.80;;;4.20;99.90;;;;;;4974893;28;20210;-75
2021/11/19 04:58:09;;;;;;;13.80;9.97;;;4.20;99.90;;;;;;4974937;28;20288;-75
2021/11/19 05:00:40;;;;;;;13.00;8.87;;;4.10;99.90;;;;;;4974850;28;20342;-75
2021/11/19 05:03:08;;;;;;;10.97;8.63;;;4.20;99.90;;;;;;4974987;28;20206;-75
2021/11/19 05:05:36;;;;;;;11.47;7.93;;;4.20;99.90;;;;;;4974375;28;20205;-75
2021/11/19 05:08:04;;;;;;;15.37;9.63;;;4.20;99.90;;;;;;4974306;28;20288;-73
2021/11/19 05:10:31;;;;;;;11.40;9.10;;;4.20;99.90;;;;;;4974315;28;20205;-74
2021/11/19 05:13:01;;;;;;;11.30;9.03;;;4.20;99.90;;;;;;4974609;28;20626;-75
2021/11/19 05:15:29;;;;;;;11.87;8.60;;;4.20;99.90;;;;;;4973841;28;20209;-75
2021/11/19 05:17:57;;;;;;;11.00;8.33;;;4.20;99.90;;;;;;4974219;28;20237;-75
2021/11/19 05:20:25;;;;;;;12.63;9.20;;;4.10;99.90;;;;;;4973648;28;20253;-75
2021/11/19 05:22:53;;;;;;;11.43;8.07;;;4.10;99.90;;;;;;4973759;28;20214;-75
2021/11/19 05:25:24;;;;;;;9.73;7.77;;;4.10;99.90;;;;;;4973739;28;20202;-74
2021/11/19 05:27:51;;;;;;;11.20;9.03;;;4.10;99.90;;;;;;4974385;28;20217;-75
2021/11/19 05:30:21;;;;;;;11.80;8.00;;;4.10;99.90;;;;;;4973241;28;20213;-75
2021/11/19 05:32:48;;;;;;;13.73;9.70;;;4.00;99.90;;;;;;4974108;28;20268;-75
2021/11/19 05:35:17;;;;;;;17.80;10.10;;;4.00;99.90;;;;;;4972384;28;20268;-75
2021/11/19 05:37:45;;;;;;;12.93;9.40;;;4.00;99.90;;;;;;4973547;28;20241;-75
2021/11/19 05:40:15;;;;;;;14.63;9.23;;;4.00;99.90;;;;;;4974124;28;20632;-73
2021/11/19 05:42:43;;;;;;;14.07;10.57;;;3.90;99.90;;;;;;4973451;28;20583;-74
2021/11/19 05:45:12;;;;;;;15.83;10.83;;;3.90;99.90;;;;;;4974127;28;20264;-74
2021/11/19 05:47:40;;;;;;;19.60;11.97;;;3.90;99.90;;;;;;4973797;28;20276;-74
2021/11/19 05:50:11;;;;;;;16.53;10.77;;;3.90;99.90;;;;;;4974201;28;20210;-77
2021/11/19 05:52:39;;;;;;;19.27;12.43;;;3.80;99.90;;;;;;4973908;28;20213;-78
2021/11/19 05:55:08;;;;;;;19.80;12.17;;;3.80;99.90;;;;;;4960497;28;20214;-78
2021/11/19 05:57:35;;;;;;;17.20;11.77;;;3.80;99.90;;;;;;4972826;28;20255;-77
2021/11/19 06:00:03;;;;;;;14.47;10.43;;;3.80;99.90;;;;;;4973257;28;20206;-77
2021/11/19 06:02:30;;;;;;;17.90;12.20;;;3.80;99.90;;;;;;4972408;28;20210;-77
2021/11/19 06:04:59;;;;;;;15.73;9.87;;;3.80;99.90;;;;;;4972964;28;20677;-77
2021/11/19 06:07:26;;;;;;;14.63;11.13;;;3.80;99.90;;;;;;4972711;28;20210;-76
2021/11/19 06:09:53;;;;;;;13.30;10.10;;;3.80;99.90;;;;;;4972990;28;20728;-77
2021/11/19 06:12:23;;;;;;;15.47;11.17;;;3.80;99.90;;;;;;4972869;28;20213;-75
2021/11/19 06:14:55;;;;;;;15.63;11.47;;;3.80;99.90;;;;;;4973117;28;20268;-75
2021/11/19 06:17:25;;;;;;;15.27;9.17;;;3.80;99.90;;;;;;4973017;28;20225;-76
2021/11/19 06:19:56;;;;;;;12.87;9.00;;;3.80;99.90;;;;;;4972705;28;20265;-73
2021/11/19 06:22:28;;;;;;;14.17;9.30;;;3.70;99.90;;;;;;4972563;28;20201;-70
2021/11/19 06:24:57;;;;;;;13.97;9.80;;;3.90;99.90;;;;;;4972754;28;20257;-77
2021/11/19 06:27:26;;;;;;;12.47;9.00;;;3.90;99.90;;;;;;4972449;28;20631;-78
2021/11/19 06:29:56;;;;;;;13.10;8.90;;;3.80;99.90;;;;;;4973080;28;20210;-75
2021/11/19 06:32:25;;;;;;;11.70;8.77;;;3.80;99.90;;;;;;4972378;28;20264;-76
2021/11/19 06:34:53;;;;;;;13.83;9.00;;;3.80;99.90;;;;;;4972975;28;20218;-77
2021/11/19 06:37:21;;;;;;;13.63;9.83;;;3.80;99.90;;;;;;4972363;28;20288;-77
2021/11/19 06:39:49;;;;;;;12.43;8.53;;;3.80;99.90;;;;;;4972847;28;20217;-77
2021/11/19 06:42:17;;;;;;;10.87;8.93;;;3.80;99.90;;;;;;4971584;28;20620;-77
2021/11/19 06:44:45;;;;;;;23.73;14.13;;;3.80;99.90;;;;;;4970460;28;20685;-77
2021/11/19 06:47:13;;;;;;;31.40;15.77;;;3.80;99.90;;;;;;4971898;28;20214;-76
2021/11/19 06:49:41;;;;;;;29.50;15.30;;;3.80;99.90;;;;;;4972421;28;20213;-76
2021/11/19 06:52:09;;;;;;;25.40;14.90;;;3.80;99.90;;;;;;4972269;28;20611;-79
2021/11/19 06:54:37;;;;;;;17.47;12.07;;;3.80;99.90;;;;;;4972444;28;20256;-77
2021/11/19 06:57:07;;;;;;;17.20;10.07;;;3.80;99.90;;;;;;4972774;28;20233;-76
2021/11/19 06:59:35;;;;;;;22.93;12.90;;;3.80;99.90;;;;;;4971476;28;20206;-77
2021/11/19 07:02:01;;;;;;;16.50;11.23;;;3.80;99.90;;;;;;4972401;28;20292;-76
2021/11/19 07:04:29;;;;;;;15.87;11.10;;;3.80;99.90;;;;;;4971963;28;20213;-74
2021/11/19 07:06:56;;;;;;;16.63;10.67;;;3.80;99.90;;;;;;4972111;28;20206;-75
2021/11/19 07:09:23;;;;;;;12.17;8.43;;;3.90;99.90;;;;;;4971857;28;20215;-74
2021/11/19 07:11:50;;;;;;;17.33;10.30;;;3.80;99.90;;;;;;4970202;28;20743;-81
2021/11/19 07:14:19;;;;;;;12.87;7.93;;;3.90;99.90;;;;;;4972051;28;20280;-78
2021/11/19 07:16:46;;;;;;;15.20;9.87;;;3.90;99.90;;;;;;4972242;28;20245;-76
2021/11/19 07:19:13;;;;;;;21.53;9.77;;;3.90;99.90;;;;;;4960322;28;20737;-73
2021/11/19 07:21:41;;;;;;;10.10;8.53;;;3.90;99.90;;;;;;4971440;28;20748;-70
2021/11/19 07:24:09;;;;;;;15.87;8.87;;;4.00;99.90;;;;;;4972568;28;20210;-74
2021/11/19 07:26:36;;;;;;;16.73;9.00;;;4.10;99.90;;;;;;4971178;28;20218;-77
2021/11/19 07:29:05;;;;;;;14.70;9.27;;;4.10;99.90;;;;;;4970114;28;20209;-73
2021/11/19 07:31:35;;;;;;;16.33;9.50;;;4.20;99.90;;;;;;4969914;28;20261;-76
2021/11/19 07:34:03;;;;;;;12.90;9.47;;;4.30;99.90;;;;;;4968937;28;20211;-72
2021/11/19 07:36:30;;;;;;;16.47;9.77;;;4.30;99.90;;;;;;4970764;28;20700;-74
2021/11/19 07:38:58;;;;;;;17.63;8.83;;;4.40;99.90;;;;;;4969738;28;20233;-78
2021/11/19 07:41:25;;;;;;;16.43;9.87;;;4.50;99.90;;;;;;4967703;28;20615;-78
2021/11/19 07:43:53;;;;;;;19.00;10.37;;;4.50;99.90;;;;;;4971087;28;20580;-78
2021/11/19 07:46:24;;;;;;;17.73;9.47;;;4.60;99.90;;;;;;4971310;28;20213;-76
2021/11/19 07:48:53;;;;;;;13.23;9.27;;;4.60;99.90;;;;;;4970726;28;20280;-76
2021/11/19 07:51:23;;;;;;;13.10;9.23;;;4.70;99.90;;;;;;4971474;28;20233;-76
2021/11/19 07:53:51;;;;;;;19.67;8.87;;;4.80;99.90;;;;;;4970928;28;20209;-76
2021/11/19 07:56:23;;;;;;;11.00;8.47;;;4.80;99.90;;;;;;4970440;28;20752;-77
2021/11/19 07:58:50;;;;;;;11.83;8.70;;;4.80;99.90;;;;;;4969618;28;20247;-77
2021/11/19 08:01:17;;;;;;;11.47;8.93;;;4.80;99.90;;;;;;4974924;28;20229;-77
2021/11/19 08:03:44;;;;;;;18.27;8.77;;;4.90;99.90;;;;;;4975010;28;20217;-77
2021/11/19 08:06:12;;;;;;;13.60;8.73;;;4.90;99.90;;;;;;4975549;28;20282;-75
2021/11/19 08:08:40;;;;;;;20.73;9.40;;;5.10;99.90;;;;;;4975793;28;20280;-76
2021/11/19 08:11:09;;;;;;;13.67;8.23;;;5.20;99.90;;;;;;4975212;28;20209;-77
2021/11/19 08:13:36;;;;;;;13.13;8.67;;;5.20;99.90;;;;;;4973706;28;20202;-77
2021/11/19 08:16:04;;;;;;;13.90;9.10;;;5.30;99.90;;;;;;4975171;28;20209;-76
2021/11/19 08:18:39;;;;;;;11.73;8.33;;;5.40;99.90;;;;;;4974077;28;20237;-76
2021/11/19 08:21:07;;;;;;;15.07;10.30;;;5.50;99.90;;;;;;4975708;28;20267;-80
2021/11/19 08:23:38;;;;;;;13.90;8.93;;;5.40;99.90;;;;;;4975134;28;20220;-75
2021/11/19 08:26:08;;;;;;;14.67;10.43;;;5.50;99.90;;;;;;4975046;28;20273;-78
2021/11/19 08:28:36;;;;;;;11.67;7.73;;;5.60;99.90;;;;;;4970890;28;20206;-82
2021/11/19 08:31:07;;;;;;;13.57;9.00;;;5.70;99.90;;;;;;4971872;28;20205;-78
2021/11/19 08:33:34;;;;;;;15.13;10.00;;;5.70;99.90;;;;;;4974222;28;20264;-76
2021/11/19 08:36:02;;;;;;;11.80;9.23;;;6.00;99.90;;;;;;4975053;28;20283;-75
2021/11/19 08:38:29;;;;;;;14.80;8.47;;;6.20;99.90;;;;;;4973295;28;20747;-82
2021/11/19 08:40:58;;;;;;;10.70;9.17;;;6.20;99.90;;;;;;4973644;28;20217;-78
2021/11/19 08:43:27;;;;;;;10.13;8.30;;;6.20;99.90;;;;;;4973370;28;20732;-79
2021/11/19 08:45:56;;;;;;;13.93;9.17;;;6.30;99.90;;;;;;4974107;28;20212;-81
2021/11/19 08:48:25;;;;;;;14.37;8.47;;;6.50;99.90;;;;;;4974654;28;20221;-81
2021/11/19 08:50:53;;;;;;;11.30;8.17;;;6.80;99.90;;;;;;4974832;28;20601;-80
2021/11/19 08:53:20;;;;;;;11.30;8.73;;;7.20;99.90;;;;;;4973717;28;20733;-79
2021/11/19 08:55:50;;;;;;;10.47;8.07;;;7.20;99.90;;;;;;4972129;28;20949;-80
2021/11/19 08:58:21;;;;;;;13.03;8.77;;;7.40;99.90;;;;;;4972731;28;20245;-81
2021/11/19 09:00:50;;;;;;;11.97;7.30;;;7.40;99.90;;;;;;4973830;28;20735;-81
2021/11/19 09:03:17;;;;;;;11.50;8.17;;;7.60;99.90;;;;;;4974526;28;20201;-81
2021/11/19 09:05:46;;;;;;;9.43;7.80;;;7.90;99.90;;;;;;4973828;28;20213;-81
2021/11/19 09:08:16;;;;;;;11.47;7.27;;;7.80;99.90;;;;;;4974367;28;20209;-79
2021/11/19 09:10:44;;;;;;;10.50;7.30;;;7.90;99.90;;;;;;4974278;28;20272;-80
2021/11/19 09:13:12;;;;;;;12.30;7.33;;;8.40;99.90;;;;;;4973906;28;20249;-80
2021/11/19 09:15:41;;;;;;;12.13;7.73;;;9.40;99.90;;;;;;4974380;28;20209;-81
2021/11/19 09:18:26;;;;;;;11.07;7.67;;;9.10;99.90;;;;;;4973853;28;20280;-81
2021/11/19 09:21:06;;;;;;;17.50;9.73;;;8.40;99.90;;;;;;4969733;28;20213;-80
2021/11/19 09:23:40;;;;;;;12.20;9.37;;;8.10;99.90;;;;;;4973732;28;20256;-82
2021/11/19 09:26:10;;;;;;;10.30;7.77;;;7.70;99.90;;;;;;4974387;28;20635;-81
2021/11/19 09:28:39;;;;;;;9.70;8.27;;;7.70;99.90;;;;;;4974084;28;20201;-81
2021/11/19 09:31:10;;;;;;;15.63;10.43;;;7.90;99.90;;;;;;4974229;28;20260;-81
2021/11/19 09:33:37;;;;;;;15.10;8.07;;;8.10;99.90;;;;;;4974099;28;20220;-83
2021/11/19 09:36:05;;;;;;;10.83;9.10;;;7.90;99.90;;;;;;4974925;28;20205;-81
2021/11/19 09:38:32;;;;;;;11.40;7.40;;;8.20;99.90;;;;;;4968700;28;20234;-83
2021/11/19 09:41:18;;;;;;;8.97;7.83;;;8.90;99.90;;;;;;4973291;28;20213;-76
2021/11/19 09:44:06;;;;;;;9.70;7.67;;;8.90;99.90;;;;;;4973332;28;20248;-79
2021/11/19 09:47:02;;;;;;;9.67;6.63;;;9.70;99.90;;;;;;4973066;28;20272;-81
2021/11/19 09:49:50;;;;;;;11.23;6.53;;;11.30;99.90;;;;;;4973741;28;20257;-78
2021/11/19 09:53:25;;;;;;;8.80;6.97;;;10.60;99.90;;;;;;4973642;28;20210;-85
2021/11/19 09:56:21;;;;;;;8.13;5.40;;;10.00;99.90;;;;;;4968140;28;20728;-78
2021/11/19 09:58:55;;;;;;;11.23;6.87;;;9.40;99.90;;;;;;4962309;28;20311;-81
2021/11/19 10:01:58;;;;;;;7.43;6.60;;;9.60;99.90;;;;;;4973274;28;20205;-81
2021/11/19 10:04:56;;;;;;;10.93;7.60;;;10.30;99.90;;;;;;4969701;28;20221;-81
2021/11/19 10:07:29;;;;;;;8.97;6.13;;;9.90;99.90;;;;;;4964671;28;20205;-83
2021/11/19 10:10:20;;;;;;;13.03;8.23;;;10.20;99.90;;;;;;4973232;28;20209;-81
2021/11/19 10:12:52;;;;;;;11.43;8.27;;;9.90;99.90;;;;;;4934351;28;20240;-81
2021/11/19 10:15:23;;;;;;;12.23;7.90;;;9.30;99.90;;;;;;4972730;28;20257;-82
2021/11/19 10:18:01;;;;;;;10.37;7.43;;;9.40;99.90;;;;;;4973058;28;20249;-81
2021/11/19 10:20:34;;;;;;;9.90;7.97;;;9.40;99.90;;;;;;4972683;28;20201;-80
2021/11/19 10:23:06;;;;;;;9.27;7.53;;;9.40;99.90;;;;;;4972440;28;20209;-81
2021/11/19 10:25:46;;;;;;;12.77;8.67;;;9.40;99.90;;;;;;4972743;28;20648;-82
2021/11/19 10:28:18;;;;;;;15.10;9.60;;;9.50;99.90;;;;;;4972169;28;20673;-83
2021/11/19 10:30:49;;;;;;;13.67;8.30;;;9.40;99.90;;;;;;4973376;28;20210;-82
2021/11/19 10:33:24;;;;;;;11.40;8.67;;;9.30;99.90;;;;;;4973329;28;20212;-84
2021/11/19 10:36:17;;;;;;;11.53;8.73;;;9.30;99.90;;;;;;4973385;28;20653;-88
2021/11/19 10:39:23;;;;;;;12.30;9.57;;;9.30;99.90;;;;;;4973267;28;20324;-83
2021/11/19 10:42:20;;;;;;;14.60;10.13;;;9.50;99.90;;;;;;4962540;28;20267;-83
2021/11/19 10:45:13;;;;;;;13.00;9.53;;;9.60;99.90;;;;;;4973048;28;20275;-83
2021/11/19 10:48:14;;;;;;;11.53;9.87;;;9.80;99.90;;;;;;4972798;28;20697;-75
2021/11/19 10:51:03;;;;;;;13.17;9.70;;;9.60;99.90;;;;;;4957618;28;20213;-79
2021/11/19 10:54:13;;;;;;;12.23;9.57;;;9.70;99.90;;;;;;4960046;28;20257;-83
2021/11/19 10:56:50;;;;;;;15.10;11.63;;;10.00;99.90;;;;;;4935395;28;20211;-74
2021/11/19 10:59:43;;;;;;;12.70;10.97;;;10.20;99.90;;;;;;4972357;28;20612;-82
2021/11/19 11:02:27;;;;;;;14.50;12.37;;;10.20;99.90;;;;;;4956548;28;20260;-73
2021/11/19 11:04:56;;;;;;;15.83;11.70;;;10.30;99.90;;;;;;4972736;28;22405;-79
2021/11/19 11:07:30;;;;;;;15.03;9.93;;;10.50;99.90;;;;;;4972505;28;20220;-81
2021/11/19 11:10:03;;;;;;;14.57;11.90;;;10.50;99.90;;;;;;4972163;28;20209;-82
2021/11/19 11:12:43;;;;;;;16.53;10.37;;;10.60;99.90;;;;;;4971885;28;20213;-83
2021/11/19 11:15:21;;;;;;;15.27;10.97;;;10.60;99.90;;;;;;4971985;28;20685;-74
2021/11/19 11:18:00;;;;;;;14.87;10.00;;;10.70;99.90;;;;;;4972607;28;20206;-81
2021/11/19 11:20:31;;;;;;;17.30;11.40;;;10.90;99.90;;;;;;4972485;28;20252;-85
2021/11/19 11:23:01;;;;;;;15.33;11.47;;;10.70;99.90;;;;;;4972517;28;20268;-81
2021/11/19 11:25:32;;;;;;;14.17;10.37;;;10.80;99.90;;;;;;4971397;28;20650;-80
2021/11/19 11:28:13;;;;;;;13.77;10.47;;;10.90;99.90;;;;;;4972618;28;20202;-79
2021/11/19 11:30:51;;;;;;;13.87;9.97;;;10.90;99.90;;;;;;4971909;28;20205;-73
2021/11/19 11:33:21;;;;;;;13.83;11.50;;;11.10;99.90;;;;;;4972677;28;20260;-80
2021/11/19 11:35:51;;;;;;;16.17;10.13;;;11.20;99.90;;;;;;4972112;28;20673;-83
2021/11/19 11:38:32;;;;;;;16.63;11.00;;;11.30;99.90;;;;;;4972073;28;20212;-83
2021/11/19 11:41:16;;;;;;;14.60;10.23;;;11.40;99.90;;;;;;4972011;28;20272;-82
2021/11/19 11:43:45;;;;;;;15.17;11.27;;;11.40;99.90;;;;;;4972001;28;20567;-80
2021/11/19 11:46:23;;;;;;;16.97;11.10;;;11.40;99.90;;;;;;4971078;28;20740;-75
2021/11/19 11:48:59;;;;;;;14.90;9.40;;;11.50;99.90;;;;;;4967923;28;20240;-83
2021/11/19 11:51:38;;;;;;;10.67;7.93;;;11.30;99.90;;;;;;4972789;28;20201;-82
2021/11/19 11:54:15;;;;;;;14.30;9.37;;;11.30;99.90;;;;;;4971836;28;20215;-83
2021/11/19 11:56:47;;;;;;;12.00;8.33;;;11.40;99.90;;;;;;4970826;28;20216;-82
2021/11/19 11:59:25;;;;;;;10.73;8.43;;;11.50;99.90;;;;;;4971143;28;20709;-81
2021/11/19 12:01:56;;;;;;;10.90;9.20;;;11.70;99.90;;;;;;4971654;28;20268;-78
2021/11/19 12:04:31;;;;;;;12.17;7.97;;;11.80;99.90;;;;;;4971058;28;20693;-79
2021/11/19 12:07:14;;;;;;;11.07;8.10;;;11.70;99.90;;;;;;4971115;28;20205;-79
2021/11/19 12:09:47;;;;;;;8.43;7.13;;;11.90;99.90;;;;;;4971103;28;20205;-77
2021/11/19 12:12:36;;;;;;;7.07;6.00;;;12.00;99.90;;;;;;4971320;28;20213;-77
2021/11/19 12:15:13;;;;;;;6.90;5.23;;;12.00;99.90;;;;;;4971455;28;20626;-78
2021/11/19 12:17:48;;;;;;;11.47;7.13;;;12.20;99.90;;;;;;4970114;28;20284;-75
2021/11/19 12:20:21;;;;;;;11.47;7.13;;;12.10;99.90;;;;;;4970667;28;20221;-77
2021/11/19 12:22:54;;;;;;;7.50;5.50;;;12.20;99.90;;;;;;4971347;28;20210;-77
2021/11/19 12:26:11;;;;;;;8.07;5.80;;;12.20;99.90;;;;;;4970819;28;20692;-78
2021/11/19 12:28:41;;;;;;;11.80;7.20;;;12.20;99.90;;;;;;4892877;29;20681;-78
2021/11/19 12:31:14;;;;;;;8.40;6.23;;;12.30;99.90;;;;;;4893010;29;20205;-81
2021/11/19 12:33:43;;;;;;;10.33;5.93;;;12.40;99.90;;;;;;4941851;28;20206;-76
2021/11/19 12:36:14;;;;;;;12.20;6.13;;;12.40;99.90;;;;;;4970858;28;20252;-72
2021/11/19 12:38:43;;;;;;;9.30;6.47;;;12.30;99.90;;;;;;4971215;28;20233;-78
2021/11/19 12:41:22;;;;;;;8.17;5.60;;;12.40;99.90;;;;;;4971181;28;20202;-73
2021/11/19 12:44:35;;;;;;;5.57;4.60;;;12.40;99.90;;;;;;4971368;28;20205;-83
2021/11/19 12:47:20;;;;;;;5.70;4.20;;;12.40;99.90;;;;;;4946997;28;20221;-76
2021/11/19 12:50:13;;;;;;;6.57;4.07;;;12.50;99.90;;;;;;4973713;28;20217;-77
2021/11/19 12:52:52;;;;;;;7.27;5.50;;;12.60;99.90;;;;;;4966254;28;20206;-72
2021/11/19 12:55:31;;;;;;;7.90;4.40;;;12.50;99.90;;;;;;4972993;28;20629;-77
2021/11/19 12:58:27;;;;;;;4.93;4.43;;;12.50;99.90;;;;;;4973305;28;20205;-78
2021/11/19 13:01:16;;;;;;;7.67;4.83;;;12.60;99.90;;;;;;4971494;28;20673;-78
2021/11/19 13:04:29;;;;;;;9.20;4.90;;;12.60;99.90;;;;;;4974357;28;20218;-78
2021/11/19 13:07:06;;;;;;;5.07;4.27;;;12.70;99.90;;;;;;4974048;28;20213;-79
2021/11/19 13:10:01;;;;;;;5.90;4.47;;;12.80;99.90;;;;;;4973375;28;20216;-78